Harkness, New York
Current Conditions -  °F | °C
As of 2:53 PM on Thursday 18 Dec 2014 (Local Time) from KPBG Reporting Station
Overcast Overcast  
Wind Chill: 26°   Ceiling: 2600
Heat Index: 33°   Visibility: 10mi
Dew Point: 25°   Wind: 8mph
Humidity: 72%   Direction: 310°NW
Pressure: 29.88"   Gusts: NA
Location:  44.5623°N, 73.5877°W
Report Text: KPBG 181953Z AUTO 31007KT 10SM OVC026 01/M04 A2988 RMK AO2 SLP120 T00061039
Loading
Personal Weather Stations






























Interactive Weather Map New forecast layout! Learn more

10-Day Weather Forecast

Advertisements
Track Severe Weather on mobile